createdAt,value
2022-10-05T00:00:42.556Z,75.9
2022-10-05T00:06:23.589Z,75.9
2022-10-05T00:12:24.180Z,75.7
2022-10-05T00:18:23.699Z,75.8
2022-10-05T00:24:23.617Z,75.8
2022-10-05T00:30:34.363Z,75.6
2022-10-05T00:36:23.464Z,76
2022-10-05T00:42:23.550Z,76.2
2022-10-05T00:48:23.225Z,76.3
2022-10-05T00:54:23.203Z,76.5
2022-10-05T01:00:23.569Z,76.7
2022-10-05T01:06:23.251Z,76.8
2022-10-05T01:12:23.237Z,76.8
2022-10-05T01:18:23.337Z,77.2
2022-10-05T01:24:23.414Z,77.2
2022-10-05T01:30:23.546Z,77.5
2022-10-05T01:36:23.323Z,77.2
2022-10-05T01:42:23.296Z,77
2022-10-05T01:48:23.353Z,77
2022-10-05T01:54:23.326Z,77
2022-10-05T02:00:23.865Z,77.2
2022-10-05T02:06:23.385Z,77.1
2022-10-05T02:12:23.616Z,77.5
2022-10-05T02:18:23.545Z,77.8
2022-10-05T02:24:23.506Z,77.8
2022-10-05T02:30:27.486Z,78.2
2022-10-05T02:36:23.582Z,78.2
2022-10-05T02:42:23.221Z,78.2
2022-10-05T02:48:23.274Z,78.2
2022-10-05T02:54:23.267Z,78.2
2022-10-05T03:00:25.099Z,78.2
2022-10-05T03:06:23.433Z,78.1
2022-10-05T03:12:23.298Z,78.2
2022-10-05T03:18:26.281Z,78.2
2022-10-05T03:24:23.222Z,78.2
2022-10-05T03:30:23.354Z,77.8
2022-10-05T03:36:23.357Z,77.6
2022-10-05T03:42:23.442Z,77.6
2022-10-05T03:48:23.352Z,77.7
2022-10-05T03:54:23.300Z,77.9
2022-10-05T04:00:29.111Z,78
2022-10-05T04:06:23.733Z,78.2
2022-10-05T04:12:24.143Z,78.6
2022-10-05T04:18:23.451Z,78.6
2022-10-05T04:24:23.423Z,78.7
2022-10-05T04:30:30.358Z,79.2
2022-10-05T04:36:23.397Z,79.4
2022-10-05T04:42:23.392Z,79.4
2022-10-05T04:48:23.227Z,79.4
2022-10-05T04:54:23.326Z,79.6
2022-10-05T05:00:25.119Z,79.6
2022-10-05T05:06:23.285Z,78.9
2022-10-05T05:12:23.275Z,78.9
2022-10-05T05:18:23.262Z,78.9
2022-10-05T05:24:23.375Z,78.9
2022-10-05T05:30:23.587Z,78.9
2022-10-05T05:36:23.701Z,79.2
2022-10-05T05:42:23.302Z,79.3
2022-10-05T05:48:23.602Z,79.4
2022-10-05T05:54:23.417Z,79.9
2022-10-05T06:00:30.510Z,80.5
2022-10-05T06:06:23.512Z,80.5
2022-10-05T06:12:23.435Z,80.4
2022-10-05T06:18:23.471Z,79.9
2022-10-05T06:24:23.662Z,80
2022-10-05T06:30:24.323Z,79.8
2022-10-05T06:36:23.289Z,79.4
2022-10-05T06:42:23.237Z,79.4
2022-10-05T06:48:23.437Z,79.9
2022-10-05T06:54:23.422Z,79.9
2022-10-05T07:00:23.788Z,79.9
2022-10-05T07:06:23.315Z,79.5
2022-10-05T07:12:23.314Z,79.4
2022-10-05T07:18:23.311Z,79.4
2022-10-05T07:24:23.748Z,79.4
2022-10-05T07:30:25.676Z,79.3
2022-10-05T07:36:23.656Z,79.1
2022-10-05T07:42:23.315Z,79.2
2022-10-05T07:48:23.683Z,79.1
2022-10-05T07:54:23.521Z,79
2022-10-05T08:00:28.844Z,78.7
2022-10-05T08:06:23.587Z,78.3
2022-10-05T08:12:23.429Z,78.3
2022-10-05T08:18:23.394Z,77.8
2022-10-05T08:24:23.602Z,77.8
2022-10-05T08:30:25.847Z,77.5
2022-10-05T08:36:24.147Z,77.5
2022-10-05T08:42:23.454Z,77.5
2022-10-05T08:48:23.242Z,77.3
2022-10-05T08:54:23.295Z,77.3
2022-10-05T09:00:23.599Z,77.3
2022-10-05T09:06:23.360Z,75.9
2022-10-05T09:12:23.203Z,75.9
2022-10-05T09:18:23.289Z,75.9
2022-10-05T09:24:23.387Z,74.6
2022-10-05T09:30:25.375Z,74.5
2022-10-05T09:36:23.230Z,74
2022-10-05T09:42:23.237Z,73.4
2022-10-05T09:48:23.252Z,73
2022-10-05T09:54:23.252Z,72.8
2022-10-05T10:00:23.242Z,72.8
2022-10-05T10:06:23.229Z,72.1
2022-10-05T10:12:23.246Z,71.7
2022-10-05T10:18:23.244Z,71.8
2022-10-05T10:24:23.324Z,71.8
2022-10-05T10:30:26.293Z,69.3
2022-10-05T10:39:23.354Z,65.9
2022-10-05T10:48:23.296Z,65.9
2022-10-05T10:54:23.306Z,65.9
2022-10-05T11:00:23.340Z,65.9
2022-10-05T11:06:23.318Z,65.9
2022-10-05T11:12:23.241Z,63.4
2022-10-05T11:18:23.255Z,61.8
2022-10-05T11:24:23.375Z,61.8
2022-10-05T11:30:23.254Z,59
2022-10-05T11:36:23.276Z,60.7
2022-10-05T11:42:23.290Z,59.9
2022-10-05T11:48:23.358Z,59.9
2022-10-05T11:54:23.401Z,58.6
2022-10-05T12:00:23.735Z,58.1
2022-10-05T12:06:23.347Z,56.4
2022-10-05T12:12:23.350Z,56.5
2022-10-05T12:18:23.625Z,55.9
2022-10-05T12:24:26.864Z,55.9
2022-10-05T12:30:24.659Z,54.7
2022-10-05T12:36:24.700Z,54.7
2022-10-05T12:42:23.443Z,54.7
2022-10-05T12:48:23.665Z,54.7
2022-10-05T12:54:23.501Z,54.7
2022-10-05T13:00:24.099Z,54.7
2022-10-05T13:06:23.572Z,54.7
2022-10-05T13:12:23.591Z,54.7
2022-10-05T13:18:23.573Z,54.7
2022-10-05T13:24:23.486Z,54.7
2022-10-05T13:30:29.574Z,54.7
2022-10-05T13:36:23.889Z,54.7
2022-10-05T13:42:23.579Z,54.7
2022-10-05T13:48:23.791Z,54.7
2022-10-05T13:54:23.541Z,54.7
2022-10-05T14:00:27.524Z,54.7
2022-10-05T14:06:23.791Z,54.7
2022-10-05T14:18:23.748Z,54.7
2022-10-05T14:24:43.202Z,54.7
2022-10-05T14:30:37.226Z,54.7
2022-10-05T14:36:25.840Z,54.7
2022-10-05T14:42:25.046Z,54.7
2022-10-05T14:48:23.742Z,54.7
2022-10-05T14:54:26.182Z,54.7
2022-10-05T15:00:28.415Z,54.7
2022-10-05T15:06:23.855Z,54.7
2022-10-05T15:12:23.505Z,54.7
2022-10-05T15:18:27.173Z,54.7
2022-10-05T15:24:23.604Z,54.7
2022-10-05T15:30:25.744Z,54.7
2022-10-05T15:36:23.606Z,54.7
2022-10-05T15:42:23.773Z,54.7
2022-10-05T15:48:25.035Z,54.7
2022-10-05T15:54:23.479Z,54.7
2022-10-05T16:00:37.715Z,54.7
2022-10-05T16:06:23.641Z,54.7
2022-10-05T16:12:23.454Z,54.7
2022-10-05T16:18:23.864Z,54.7
2022-10-05T16:24:23.675Z,54.7
2022-10-05T16:30:27.989Z,54.7
2022-10-05T16:36:24.399Z,54.7
2022-10-05T16:42:23.527Z,54.7
2022-10-05T16:48:23.750Z,54.7
2022-10-05T16:54:26.604Z,54.7
2022-10-05T17:00:44.098Z,54.7
2022-10-05T17:06:23.435Z,54.7
2022-10-05T17:12:23.578Z,54.7
2022-10-05T17:18:23.973Z,54.7
2022-10-05T17:24:23.571Z,54.7
2022-10-05T17:30:26.731Z,54.7
2022-10-05T17:36:23.589Z,54.7
2022-10-05T17:42:23.483Z,54.7
2022-10-05T17:48:23.958Z,54.7
2022-10-05T17:54:23.576Z,54.7
2022-10-05T18:00:36.756Z,54.7
2022-10-05T18:06:23.705Z,54.7
2022-10-05T18:12:23.564Z,54.7
2022-10-05T18:18:23.820Z,54.7
2022-10-05T18:24:23.486Z,54.7
2022-10-05T18:30:29.556Z,54.7
2022-10-05T18:36:23.684Z,54.7
2022-10-05T18:42:23.504Z,54.7
2022-10-05T18:48:23.823Z,54.7
2022-10-05T18:54:23.617Z,54.7
2022-10-05T19:00:39.566Z,54.7
2022-10-05T19:06:23.944Z,54.7
2022-10-05T19:12:23.637Z,54.7
2022-10-05T19:18:23.856Z,54.7
2022-10-05T19:24:23.465Z,54.7
2022-10-05T19:30:28.623Z,54.7
2022-10-05T19:36:23.549Z,54.7
2022-10-05T19:42:23.620Z,54.7
2022-10-05T19:48:23.539Z,54.7
2022-10-05T19:54:23.955Z,54.7
2022-10-05T20:00:44.357Z,54.7
2022-10-05T20:06:28.776Z,54.7
2022-10-05T20:12:23.688Z,54.7
2022-10-05T20:18:23.833Z,54.7
2022-10-05T20:24:23.710Z,54.7
2022-10-05T20:30:33.462Z,54.7
2022-10-05T20:36:25.784Z,54.7
2022-10-05T20:42:25.571Z,54.7
2022-10-05T20:48:26.746Z,54.7
2022-10-05T20:54:25.599Z,54.7
2022-10-05T21:00:46.053Z,54.7
2022-10-05T21:06:26.925Z,54.7
2022-10-05T21:12:25.811Z,54.7
2022-10-05T21:18:25.509Z,54.7
2022-10-05T21:24:26.838Z,54.7
2022-10-05T21:30:38.091Z,54.7
2022-10-05T21:36:28.524Z,54.7
2022-10-05T21:42:28.704Z,54.7
2022-10-05T21:48:25.320Z,54.7
2022-10-05T21:54:24.143Z,54.7
2022-10-05T22:00:50.610Z,54.7
2022-10-05T22:06:24.848Z,54.7
2022-10-05T22:12:24.166Z,63.8
2022-10-05T22:18:23.834Z,64.1
2022-10-05T22:24:25.431Z,64.4
2022-10-05T22:30:52.499Z,64.4
2022-10-05T22:36:25.873Z,64.4
2022-10-05T22:42:25.237Z,65.1
2022-10-05T22:48:25.518Z,67
2022-10-05T22:54:28.735Z,67.1
2022-10-05T23:00:56.919Z,67.9
2022-10-05T23:06:24.061Z,68.7
2022-10-05T23:12:24.273Z,71
2022-10-05T23:18:24.004Z,71.7
2022-10-05T23:24:24.002Z,72
2022-10-05T23:30:43.708Z,72
2022-10-05T23:36:25.414Z,71.9
2022-10-05T23:42:24.085Z,71.9
2022-10-05T23:48:26.462Z,71.7
2022-10-05T23:54:24.763Z,72
